sensor_id;sensor_type;location;lat;lon;timestamp;temperature;humidity
7822;DHT22;3956;50.558;9.678;2022-10-22T00:01:11;13.80;1.00
7822;DHT22;3956;50.558;9.678;2022-10-22T00:03:40;13.80;1.00
7822;DHT22;3956;50.558;9.678;2022-10-22T00:06:08;13.80;1.00
7822;DHT22;3956;50.558;9.678;2022-10-22T00:08:38;13.80;1.00
7822;DHT22;3956;50.558;9.678;2022-10-22T00:11:11;13.70;1.00
7822;DHT22;3956;50.558;9.678;2022-10-22T00:13:39;13.70;1.00
7822;DHT22;3956;50.558;9.678;2022-10-22T00:16:08;13.70;1.00
7822;DHT22;3956;50.558;9.678;2022-10-22T00:18:38;13.70;1.00
7822;DHT22;3956;50.558;9.678;2022-10-22T00:21:08;13.70;1.00
7822;DHT22;3956;50.558;9.678;2022-10-22T00:23:40;13.60;1.00
7822;DHT22;3956;50.558;9.678;2022-10-22T00:26:09;13.60;1.00
7822;DHT22;3956;50.558;9.678;2022-10-22T00:28:38;13.60;1.00
7822;DHT22;3956;50.558;9.678;2022-10-22T00:31:06;13.60;1.00
7822;DHT22;3956;50.558;9.678;2022-10-22T00:33:34;13.60;1.00
7822;DHT22;3956;50.558;9.678;2022-10-22T00:36:03;13.60;1.00
7822;DHT22;3956;50.558;9.678;2022-10-22T00:38:32;13.70;1.00
7822;DHT22;3956;50.558;9.678;2022-10-22T00:41:01;13.70;1.00
7822;DHT22;3956;50.558;9.678;2022-10-22T00:43:30;13.70;1.00
7822;DHT22;3956;50.558;9.678;2022-10-22T00:46:01;13.70;1.00
7822;DHT22;3956;50.558;9.678;2022-10-22T00:48:32;13.70;1.00
7822;DHT22;3956;50.558;9.678;2022-10-22T00:51:04;13.70;1.00
7822;DHT22;3956;50.558;9.678;2022-10-22T00:53:36;13.70;1.00
7822;DHT22;3956;50.558;9.678;2022-10-22T00:56:11;13.80;1.00
7822;DHT22;3956;50.558;9.678;2022-10-22T00:58:43;13.80;1.00
7822;DHT22;3956;50.558;9.678;2022-10-22T01:01:17;13.80;1.00
7822;DHT22;3956;50.558;9.678;2022-10-22T01:03:48;13.80;1.00
7822;DHT22;3956;50.558;9.678;2022-10-22T01:06:22;13.90;1.00
7822;DHT22;3956;50.558;9.678;2022-10-22T01:08:58;13.80;1.00
7822;DHT22;3956;50.558;9.678;2022-10-22T01:11:41;13.90;1.00
7822;DHT22;3956;50.558;9.678;2022-10-22T01:14:19;13.90;1.00
7822;DHT22;3956;50.558;9.678;2022-10-22T01:16:56;14.00;1.00
7822;DHT22;3956;50.558;9.678;2022-10-22T01:19:38;13.90;1.00
7822;DHT22;3956;50.558;9.678;2022-10-22T01:22:16;13.90;1.00
7822;DHT22;3956;50.558;9.678;2022-10-22T01:24:56;14.00;1.00
7822;DHT22;3956;50.558;9.678;2022-10-22T01:27:30;14.00;1.00
7822;DHT22;3956;50.558;9.678;2022-10-22T01:30:02;14.00;1.00
7822;DHT22;3956;50.558;9.678;2022-10-22T01:32:34;14.00;1.00
7822;DHT22;3956;50.558;9.678;2022-10-22T01:35:07;14.00;1.00
7822;DHT22;3956;50.558;9.678;2022-10-22T01:37:48;14.10;1.00
7822;DHT22;3956;50.558;9.678;2022-10-22T01:40:17;14.10;1.00
7822;DHT22;3956;50.558;9.678;2022-10-22T01:42:55;14.00;1.00
7822;DHT22;3956;50.558;9.678;2022-10-22T01:45:25;14.00;1.00
7822;DHT22;3956;50.558;9.678;2022-10-22T01:48:01;14.10;1.00
7822;DHT22;3956;50.558;9.678;2022-10-22T01:50:51;14.10;1.00
7822;DHT22;3956;50.558;9.678;2022-10-22T01:53:27;14.00;1.00
7822;DHT22;3956;50.558;9.678;2022-10-22T01:56:11;14.00;1.00
7822;DHT22;3956;50.558;9.678;2022-10-22T01:58:44;14.00;1.00
7822;DHT22;3956;50.558;9.678;2022-10-22T02:01:22;14.00;1.00
7822;DHT22;3956;50.558;9.678;2022-10-22T02:04:00;14.00;1.00
7822;DHT22;3956;50.558;9.678;2022-10-22T02:06:32;13.90;1.00
7822;DHT22;3956;50.558;9.678;2022-10-22T02:09:02;13.80;1.00
7822;DHT22;3956;50.558;9.678;2022-10-22T02:11:30;13.80;1.00
7822;DHT22;3956;50.558;9.678;2022-10-22T02:14:01;13.80;1.00
7822;DHT22;3956;50.558;9.678;2022-10-22T02:16:34;13.80;1.00
7822;DHT22;3956;50.558;9.678;2022-10-22T02:19:08;13.70;58.30
7822;DHT22;3956;50.558;9.678;2022-10-22T02:21:38;13.70;99.90
7822;DHT22;3956;50.558;9.678;2022-10-22T02:24:07;13.60;99.90
7822;DHT22;3956;50.558;9.678;2022-10-22T02:26:39;13.60;99.90
7822;DHT22;3956;50.558;9.678;2022-10-22T02:29:14;13.60;99.90
7822;DHT22;3956;50.558;9.678;2022-10-22T02:31:50;13.50;99.90
7822;DHT22;3956;50.558;9.678;2022-10-22T02:34:24;13.60;1.00
7822;DHT22;3956;50.558;9.678;2022-10-22T02:36:54;13.50;1.00
7822;DHT22;3956;50.558;9.678;2022-10-22T02:39:24;13.50;1.00
7822;DHT22;3956;50.558;9.678;2022-10-22T02:41:53;13.50;1.00
7822;DHT22;3956;50.558;9.678;2022-10-22T02:44:23;13.50;1.00
7822;DHT22;3956;50.558;9.678;2022-10-22T02:46:53;13.50;1.00
7822;DHT22;3956;50.558;9.678;2022-10-22T02:49:21;13.60;99.90
7822;DHT22;3956;50.558;9.678;2022-10-22T02:51:49;13.50;99.90
7822;DHT22;3956;50.558;9.678;2022-10-22T02:54:18;13.50;99.90
7822;DHT22;3956;50.558;9.678;2022-10-22T02:56:46;13.50;99.90
7822;DHT22;3956;50.558;9.678;2022-10-22T02:59:14;13.50;1.00
7822;DHT22;3956;50.558;9.678;2022-10-22T03:01:42;13.50;99.90
7822;DHT22;3956;50.558;9.678;2022-10-22T03:04:12;13.40;99.90
7822;DHT22;3956;50.558;9.678;2022-10-22T03:06:41;13.40;99.90
7822;DHT22;3956;50.558;9.678;2022-10-22T03:09:10;13.30;99.90
7822;DHT22;3956;50.558;9.678;2022-10-22T03:11:38;13.30;99.90
7822;DHT22;3956;50.558;9.678;2022-10-22T03:14:06;13.30;99.90
7822;DHT22;3956;50.558;9.678;2022-10-22T03:16:35;13.30;99.90
7822;DHT22;3956;50.558;9.678;2022-10-22T03:19:03;13.30;13.00
7822;DHT22;3956;50.558;9.678;2022-10-22T03:21:39;13.30;1.00
7822;DHT22;3956;50.558;9.678;2022-10-22T03:24:12;13.40;1.00
7822;DHT22;3956;50.558;9.678;2022-10-22T03:26:42;13.40;99.90
7822;DHT22;3956;50.558;9.678;2022-10-22T03:29:11;13.30;1.00
7822;DHT22;3956;50.558;9.678;2022-10-22T03:31:40;13.30;1.00
7822;DHT22;3956;50.558;9.678;2022-10-22T03:34:08;13.30;99.90
7822;DHT22;3956;50.558;9.678;2022-10-22T03:36:39;13.30;99.90
7822;DHT22;3956;50.558;9.678;2022-10-22T03:39:08;13.20;1.00
7822;DHT22;3956;50.558;9.678;2022-10-22T03:41:39;13.10;99.90
7822;DHT22;3956;50.558;9.678;2022-10-22T03:44:07;13.30;1.00
7822;DHT22;3956;50.558;9.678;2022-10-22T03:46:35;13.10;99.90
7822;DHT22;3956;50.558;9.678;2022-10-22T03:49:03;13.10;1.00
7822;DHT22;3956;50.558;9.678;2022-10-22T03:51:32;13.20;99.90
7822;DHT22;3956;50.558;9.678;2022-10-22T03:54:03;13.10;1.00
7822;DHT22;3956;50.558;9.678;2022-10-22T03:56:31;13.20;99.90
7822;DHT22;3956;50.558;9.678;2022-10-22T03:59:00;13.30;99.90
7822;DHT22;3956;50.558;9.678;2022-10-22T04:01:29;13.10;1.00
7822;DHT22;3956;50.558;9.678;2022-10-22T04:03:58;13.20;99.90
7822;DHT22;3956;50.558;9.678;2022-10-22T04:06:28;13.10;99.90
7822;DHT22;3956;50.558;9.678;2022-10-22T04:08:57;13.10;9.50
7822;DHT22;3956;50.558;9.678;2022-10-22T04:11:28;13.10;1.00
7822;DHT22;3956;50.558;9.678;2022-10-22T04:13:56;13.10;1.00
7822;DHT22;3956;50.558;9.678;2022-10-22T04:16:25;13.10;1.00
7822;DHT22;3956;50.558;9.678;2022-10-22T04:18:57;13.10;1.00
7822;DHT22;3956;50.558;9.678;2022-10-22T04:21:25;13.10;1.00
7822;DHT22;3956;50.558;9.678;2022-10-22T04:23:53;13.20;99.90
7822;DHT22;3956;50.558;9.678;2022-10-22T04:26:21;13.10;99.90
7822;DHT22;3956;50.558;9.678;2022-10-22T04:28:51;13.10;99.90
7822;DHT22;3956;50.558;9.678;2022-10-22T04:31:21;13.00;1.00
7822;DHT22;3956;50.558;9.678;2022-10-22T04:33:54;13.10;99.90
7822;DHT22;3956;50.558;9.678;2022-10-22T04:36:23;13.20;99.90
7822;DHT22;3956;50.558;9.678;2022-10-22T04:38:53;12.90;99.90
7822;DHT22;3956;50.558;9.678;2022-10-22T04:41:23;13.00;99.90
7822;DHT22;3956;50.558;9.678;2022-10-22T04:43:55;13.00;99.90
7822;DHT22;3956;50.558;9.678;2022-10-22T04:46:24;13.30;99.90
7822;DHT22;3956;50.558;9.678;2022-10-22T04:48:53;13.40;99.90
7822;DHT22;3956;50.558;9.678;2022-10-22T04:51:23;13.50;99.90
7822;DHT22;3956;50.558;9.678;2022-10-22T04:53:52;13.50;99.90
7822;DHT22;3956;50.558;9.678;2022-10-22T04:56:22;13.70;99.90
7822;DHT22;3956;50.558;9.678;2022-10-22T04:58:55;13.60;99.90
7822;DHT22;3956;50.558;9.678;2022-10-22T05:01:26;13.50;99.90
7822;DHT22;3956;50.558;9.678;2022-10-22T05:03:57;13.50;99.90
7822;DHT22;3956;50.558;9.678;2022-10-22T05:06:26;13.50;99.90
7822;DHT22;3956;50.558;9.678;2022-10-22T05:08:56;13.60;99.90
7822;DHT22;3956;50.558;9.678;2022-10-22T05:11:27;13.30;99.90
7822;DHT22;3956;50.558;9.678;2022-10-22T05:13:57;13.40;99.90
7822;DHT22;3956;50.558;9.678;2022-10-22T05:16:27;13.30;99.90
7822;DHT22;3956;50.558;9.678;2022-10-22T05:18:57;13.30;99.90
7822;DHT22;3956;50.558;9.678;2022-10-22T05:21:27;13.30;99.90
7822;DHT22;3956;50.558;9.678;2022-10-22T05:23:56;13.30;99.90
7822;DHT22;3956;50.558;9.678;2022-10-22T05:26:27;13.40;99.90
7822;DHT22;3956;50.558;9.678;2022-10-22T05:28:57;13.40;99.90
7822;DHT22;3956;50.558;9.678;2022-10-22T05:31:25;13.40;99.90
7822;DHT22;3956;50.558;9.678;2022-10-22T05:33:54;13.40;99.90
7822;DHT22;3956;50.558;9.678;2022-10-22T05:36:23;13.30;99.90
7822;DHT22;3956;50.558;9.678;2022-10-22T05:38:51;13.30;99.90
7822;DHT22;3956;50.558;9.678;2022-10-22T05:41:21;13.40;99.90
7822;DHT22;3956;50.558;9.678;2022-10-22T05:43:50;13.40;99.90
7822;DHT22;3956;50.558;9.678;2022-10-22T05:46:21;13.40;99.90
7822;DHT22;3956;50.558;9.678;2022-10-22T05:48:50;13.40;99.90
7822;DHT22;3956;50.558;9.678;2022-10-22T05:51:19;13.40;99.90
7822;DHT22;3956;50.558;9.678;2022-10-22T05:53:50;13.40;99.90
7822;DHT22;3956;50.558;9.678;2022-10-22T05:56:20;13.40;99.90
7822;DHT22;3956;50.558;9.678;2022-10-22T05:58:49;13.50;99.90
7822;DHT22;3956;50.558;9.678;2022-10-22T06:01:20;13.50;99.90
7822;DHT22;3956;50.558;9.678;2022-10-22T06:03:51;13.60;99.90
7822;DHT22;3956;50.558;9.678;2022-10-22T06:06:21;13.60;99.90
7822;DHT22;3956;50.558;9.678;2022-10-22T06:08:53;13.50;99.90
7822;DHT22;3956;50.558;9.678;2022-10-22T06:11:22;13.60;99.90
7822;DHT22;3956;50.558;9.678;2022-10-22T06:13:51;13.70;99.90
7822;DHT22;3956;50.558;9.678;2022-10-22T06:16:21;13.70;99.90
7822;DHT22;3956;50.558;9.678;2022-10-22T06:18:49;13.60;99.90
7822;DHT22;3956;50.558;9.678;2022-10-22T06:21:17;13.60;99.90
7822;DHT22;3956;50.558;9.678;2022-10-22T06:23:45;13.60;99.90
7822;DHT22;3956;50.558;9.678;2022-10-22T06:26:14;13.70;99.90
7822;DHT22;3956;50.558;9.678;2022-10-22T06:28:43;13.70;99.90
7822;DHT22;3956;50.558;9.678;2022-10-22T06:31:12;13.70;99.90
7822;DHT22;3956;50.558;9.678;2022-10-22T06:33:42;13.80;99.90
7822;DHT22;3956;50.558;9.678;2022-10-22T06:36:11;13.80;99.90
7822;DHT22;3956;50.558;9.678;2022-10-22T06:38:40;13.90;99.90
7822;DHT22;3956;50.558;9.678;2022-10-22T06:41:10;13.90;99.90
7822;DHT22;3956;50.558;9.678;2022-10-22T06:43:39;13.90;99.90
7822;DHT22;3956;50.558;9.678;2022-10-22T06:46:08;13.90;99.90
7822;DHT22;3956;50.558;9.678;2022-10-22T06:48:48;14.10;99.90
7822;DHT22;3956;50.558;9.678;2022-10-22T06:51:16;14.10;99.90
7822;DHT22;3956;50.558;9.678;2022-10-22T06:53:45;14.20;99.90
7822;DHT22;3956;50.558;9.678;2022-10-22T06:56:15;14.10;99.90
7822;DHT22;3956;50.558;9.678;2022-10-22T06:58:46;14.30;99.90
7822;DHT22;3956;50.558;9.678;2022-10-22T07:01:16;14.40;99.90
7822;DHT22;3956;50.558;9.678;2022-10-22T07:03:46;14.30;99.90
7822;DHT22;3956;50.558;9.678;2022-10-22T07:06:17;14.50;99.90
7822;DHT22;3956;50.558;9.678;2022-10-22T07:08:46;14.50;99.90
7822;DHT22;3956;50.558;9.678;2022-10-22T07:11:16;14.40;99.90
7822;DHT22;3956;50.558;9.678;2022-10-22T07:13:45;14.50;99.90
7822;DHT22;3956;50.558;9.678;2022-10-22T07:16:15;14.40;99.90
7822;DHT22;3956;50.558;9.678;2022-10-22T07:18:46;14.40;99.90
7822;DHT22;3956;50.558;9.678;2022-10-22T07:21:16;14.40;99.90
7822;DHT22;3956;50.558;9.678;2022-10-22T07:23:45;14.30;99.90
7822;DHT22;3956;50.558;9.678;2022-10-22T07:26:15;14.30;99.90
7822;DHT22;3956;50.558;9.678;2022-10-22T07:28:43;14.30;99.90
7822;DHT22;3956;50.558;9.678;2022-10-22T07:31:13;14.30;99.90
7822;DHT22;3956;50.558;9.678;2022-10-22T07:33:42;14.30;99.90
7822;DHT22;3956;50.558;9.678;2022-10-22T07:36:13;14.40;99.90
7822;DHT22;3956;50.558;9.678;2022-10-22T07:38:43;14.30;99.90
7822;DHT22;3956;50.558;9.678;2022-10-22T07:41:13;14.40;99.90
7822;DHT22;3956;50.558;9.678;2022-10-22T07:43:41;14.30;99.90
7822;DHT22;3956;50.558;9.678;2022-10-22T07:46:09;14.20;99.90
7822;DHT22;3956;50.558;9.678;2022-10-22T07:48:38;14.40;99.90
7822;DHT22;3956;50.558;9.678;2022-10-22T07:51:06;14.30;99.90
7822;DHT22;3956;50.558;9.678;2022-10-22T07:53:36;14.40;99.90
7822;DHT22;3956;50.558;9.678;2022-10-22T07:56:06;14.40;99.90
7822;DHT22;3956;50.558;9.678;2022-10-22T07:58:34;14.40;99.90
7822;DHT22;3956;50.558;9.678;2022-10-22T08:01:03;14.30;99.90
7822;DHT22;3956;50.558;9.678;2022-10-22T08:03:33;14.40;99.90
7822;DHT22;3956;50.558;9.678;2022-10-22T08:06:01;14.50;99.90
7822;DHT22;3956;50.558;9.678;2022-10-22T08:08:30;14.50;99.90
7822;DHT22;3956;50.558;9.678;2022-10-22T08:11:01;14.40;99.90
7822;DHT22;3956;50.558;9.678;2022-10-22T08:13:29;14.50;99.90
7822;DHT22;3956;50.558;9.678;2022-10-22T08:15:58;14.50;99.90
7822;DHT22;3956;50.558;9.678;2022-10-22T08:18:27;14.50;99.90
7822;DHT22;3956;50.558;9.678;2022-10-22T08:20:56;14.50;99.90
7822;DHT22;3956;50.558;9.678;2022-10-22T08:23:24;14.50;99.90
7822;DHT22;3956;50.558;9.678;2022-10-22T08:25:55;14.40;99.90
7822;DHT22;3956;50.558;9.678;2022-10-22T08:28:25;14.40;99.90
7822;DHT22;3956;50.558;9.678;2022-10-22T08:30:55;14.30;99.90
7822;DHT22;3956;50.558;9.678;2022-10-22T08:33:23;14.40;99.90
7822;DHT22;3956;50.558;9.678;2022-10-22T08:35:52;14.30;99.90
7822;DHT22;3956;50.558;9.678;2022-10-22T08:38:21;14.20;99.90
7822;DHT22;3956;50.558;9.678;2022-10-22T08:40:53;14.20;99.90
7822;DHT22;3956;50.558;9.678;2022-10-22T08:43:45;14.30;99.90
7822;DHT22;3956;50.558;9.678;2022-10-22T08:49:11;13.90;99.90
7822;DHT22;3956;50.558;9.678;2022-10-22T08:51:41;13.70;99.90
7822;DHT22;3956;50.558;9.678;2022-10-22T08:54:31;13.90;99.90
7822;DHT22;3956;50.558;9.678;2022-10-22T08:57:12;13.80;99.90
7822;DHT22;3956;50.558;9.678;2022-10-22T08:59:47;13.90;99.90
7822;DHT22;3956;50.558;9.678;2022-10-22T09:02:29;13.80;99.90
7822;DHT22;3956;50.558;9.678;2022-10-22T09:05:05;13.70;99.90
7822;DHT22;3956;50.558;9.678;2022-10-22T09:07:40;13.60;99.90
7822;DHT22;3956;50.558;9.678;2022-10-22T09:10:11;14.00;99.90
7822;DHT22;3956;50.558;9.678;2022-10-22T09:12:39;14.10;99.90
7822;DHT22;3956;50.558;9.678;2022-10-22T09:15:12;14.10;99.90
7822;DHT22;3956;50.558;9.678;2022-10-22T09:17:54;14.20;1.00
7822;DHT22;3956;50.558;9.678;2022-10-22T09:20:27;14.20;1.00
7822;DHT22;3956;50.558;9.678;2022-10-22T09:23:20;14.20;1.00
7822;DHT22;3956;50.558;9.678;2022-10-22T09:25:51;14.20;35.50
7822;DHT22;3956;50.558;9.678;2022-10-22T09:28:21;14.20;1.00
7822;DHT22;3956;50.558;9.678;2022-10-22T09:30:51;14.30;99.90
7822;DHT22;3956;50.558;9.678;2022-10-22T09:33:23;14.30;1.00
7822;DHT22;3956;50.558;9.678;2022-10-22T09:35:54;14.40;99.90
7822;DHT22;3956;50.558;9.678;2022-10-22T09:38:25;14.20;1.00
7822;DHT22;3956;50.558;9.678;2022-10-22T09:40:55;14.40;1.00
7822;DHT22;3956;50.558;9.678;2022-10-22T09:43:24;14.50;99.90
7822;DHT22;3956;50.558;9.678;2022-10-22T09:45:58;14.70;99.90
7822;DHT22;3956;50.558;9.678;2022-10-22T09:48:31;14.70;99.90
7822;DHT22;3956;50.558;9.678;2022-10-22T09:51:07;14.70;99.90
7822;DHT22;3956;50.558;9.678;2022-10-22T09:53:41;14.80;1.00
7822;DHT22;3956;50.558;9.678;2022-10-22T09:56:17;14.80;1.00
7822;DHT22;3956;50.558;9.678;2022-10-22T09:58:49;14.90;1.00
7822;DHT22;3956;50.558;9.678;2022-10-22T10:01:24;15.00;1.00
7822;DHT22;3956;50.558;9.678;2022-10-22T10:03:53;15.10;1.00
7822;DHT22;3956;50.558;9.678;2022-10-22T10:06:22;15.10;1.00
7822;DHT22;3956;50.558;9.678;2022-10-22T10:08:50;15.10;1.00
7822;DHT22;3956;50.558;9.678;2022-10-22T10:11:27;15.20;1.00
7822;DHT22;3956;50.558;9.678;2022-10-22T10:14:05;15.00;1.00
7822;DHT22;3956;50.558;9.678;2022-10-22T10:16:44;15.20;1.00
7822;DHT22;3956;50.558;9.678;2022-10-22T10:19:30;15.30;1.00
7822;DHT22;3956;50.558;9.678;2022-10-22T10:22:16;15.50;1.00
7822;DHT22;3956;50.558;9.678;2022-10-22T10:24:55;15.40;1.00
7822;DHT22;3956;50.558;9.678;2022-10-22T10:27:34;15.40;1.00
7822;DHT22;3956;50.558;9.678;2022-10-22T10:30:10;15.60;1.00
7822;DHT22;3956;50.558;9.678;2022-10-22T10:33:04;15.90;1.00
7822;DHT22;3956;50.558;9.678;2022-10-22T10:35:45;15.60;1.00
7822;DHT22;3956;50.558;9.678;2022-10-22T10:38:36;15.70;1.00
7822;DHT22;3956;50.558;9.678;2022-10-22T10:41:16;16.00;1.00
7822;DHT22;3956;50.558;9.678;2022-10-22T10:43:58;16.10;1.00
7822;DHT22;3956;50.558;9.678;2022-10-22T10:46:37;16.10;1.00
7822;DHT22;3956;50.558;9.678;2022-10-22T10:49:09;16.50;1.00
7822;DHT22;3956;50.558;9.678;2022-10-22T10:51:48;16.30;1.00
7822;DHT22;3956;50.558;9.678;2022-10-22T10:54:27;16.20;1.00
7822;DHT22;3956;50.558;9.678;2022-10-22T10:57:02;16.20;1.00
7822;DHT22;3956;50.558;9.678;2022-10-22T10:59:41;16.10;1.00
7822;DHT22;3956;50.558;9.678;2022-10-22T11:02:38;16.10;1.00
7822;DHT22;3956;50.558;9.678;2022-10-22T11:05:30;15.90;1.00
7822;DHT22;3956;50.558;9.678;2022-10-22T11:08:01;15.90;1.00
7822;DHT22;3956;50.558;9.678;2022-10-22T11:10:34;16.10;1.00
7822;DHT22;3956;50.558;9.678;2022-10-22T11:13:10;16.30;1.00
7822;DHT22;3956;50.558;9.678;2022-10-22T11:15:40;16.60;1.00
7822;DHT22;3956;50.558;9.678;2022-10-22T11:18:19;16.60;1.00
7822;DHT22;3956;50.558;9.678;2022-10-22T11:20:59;16.40;99.90
7822;DHT22;3956;50.558;9.678;2022-10-22T11:23:34;16.50;1.00
7822;DHT22;3956;50.558;9.678;2022-10-22T11:26:06;16.40;1.00
7822;DHT22;3956;50.558;9.678;2022-10-22T11:28:42;16.40;1.00
7822;DHT22;3956;50.558;9.678;2022-10-22T11:31:14;16.20;1.00
7822;DHT22;3956;50.558;9.678;2022-10-22T11:33:49;16.60;1.00
7822;DHT22;3956;50.558;9.678;2022-10-22T11:36:33;16.50;1.00
7822;DHT22;3956;50.558;9.678;2022-10-22T11:39:03;16.50;1.00
7822;DHT22;3956;50.558;9.678;2022-10-22T11:41:35;16.50;1.00
7822;DHT22;3956;50.558;9.678;2022-10-22T11:44:18;16.50;1.00
7822;DHT22;3956;50.558;9.678;2022-10-22T11:46:55;16.50;1.00
7822;DHT22;3956;50.558;9.678;2022-10-22T11:49:26;16.60;99.90
7822;DHT22;3956;50.558;9.678;2022-10-22T11:52:24;16.70;99.90
7822;DHT22;3956;50.558;9.678;2022-10-22T11:54:55;16.70;1.00
7822;DHT22;3956;50.558;9.678;2022-10-22T11:57:34;16.70;99.90
7822;DHT22;3956;50.558;9.678;2022-10-22T12:00:08;16.80;99.90
7822;DHT22;3956;50.558;9.678;2022-10-22T12:02:40;16.90;99.90
7822;DHT22;3956;50.558;9.678;2022-10-22T12:05:34;16.70;99.90
7822;DHT22;3956;50.558;9.678;2022-10-22T12:08:21;16.60;99.90
7822;DHT22;3956;50.558;9.678;2022-10-22T12:11:04;16.80;99.90
7822;DHT22;3956;50.558;9.678;2022-10-22T12:13:52;17.00;99.90
7822;DHT22;3956;50.558;9.678;2022-10-22T12:16:26;17.20;99.90
7822;DHT22;3956;50.558;9.678;2022-10-22T12:19:17;17.50;99.90
7822;DHT22;3956;50.558;9.678;2022-10-22T12:21:48;17.40;99.90
7822;DHT22;3956;50.558;9.678;2022-10-22T12:24:22;17.40;99.90
7822;DHT22;3956;50.558;9.678;2022-10-22T12:26:50;17.50;99.90
7822;DHT22;3956;50.558;9.678;2022-10-22T12:29:20;17.70;99.90
7822;DHT22;3956;50.558;9.678;2022-10-22T12:31:51;17.90;99.90
7822;DHT22;3956;50.558;9.678;2022-10-22T12:34:22;17.90;99.90
7822;DHT22;3956;50.558;9.678;2022-10-22T12:36:52;18.10;99.90
7822;DHT22;3956;50.558;9.678;2022-10-22T12:39:25;18.40;99.90
7822;DHT22;3956;50.558;9.678;2022-10-22T12:41:54;18.30;99.90
7822;DHT22;3956;50.558;9.678;2022-10-22T12:44:22;18.00;99.90
7822;DHT22;3956;50.558;9.678;2022-10-22T12:46:51;18.10;99.90
7822;DHT22;3956;50.558;9.678;2022-10-22T12:49:24;18.10;99.90
7822;DHT22;3956;50.558;9.678;2022-10-22T12:51:59;18.30;99.90
7822;DHT22;3956;50.558;9.678;2022-10-22T12:54:31;18.20;99.90
7822;DHT22;3956;50.558;9.678;2022-10-22T12:57:00;17.80;99.90
7822;DHT22;3956;50.558;9.678;2022-10-22T12:59:32;18.20;99.90
7822;DHT22;3956;50.558;9.678;2022-10-22T13:02:03;17.90;99.90
7822;DHT22;3956;50.558;9.678;2022-10-22T13:04:39;17.80;99.90
7822;DHT22;3956;50.558;9.678;2022-10-22T13:07:17;17.70;99.90
7822;DHT22;3956;50.558;9.678;2022-10-22T13:09:58;17.80;99.90
7822;DHT22;3956;50.558;9.678;2022-10-22T13:12:34;17.70;99.90
7822;DHT22;3956;50.558;9.678;2022-10-22T13:15:17;17.70;99.90
7822;DHT22;3956;50.558;9.678;2022-10-22T13:17:46;17.50;99.90
7822;DHT22;3956;50.558;9.678;2022-10-22T13:20:18;17.70;99.90
7822;DHT22;3956;50.558;9.678;2022-10-22T13:22:55;17.70;99.90
7822;DHT22;3956;50.558;9.678;2022-10-22T13:25:29;17.50;99.90
7822;DHT22;3956;50.558;9.678;2022-10-22T13:27:59;17.60;99.90
7822;DHT22;3956;50.558;9.678;2022-10-22T13:30:30;17.50;99.90
7822;DHT22;3956;50.558;9.678;2022-10-22T13:33:00;17.40;99.90
7822;DHT22;3956;50.558;9.678;2022-10-22T13:35:30;17.50;99.90
7822;DHT22;3956;50.558;9.678;2022-10-22T13:37:59;17.40;99.90
7822;DHT22;3956;50.558;9.678;2022-10-22T13:40:29;17.40;99.90
7822;DHT22;3956;50.558;9.678;2022-10-22T13:42:57;17.40;99.90
7822;DHT22;3956;50.558;9.678;2022-10-22T13:45:26;17.30;99.90
7822;DHT22;3956;50.558;9.678;2022-10-22T13:47:54;17.30;99.90
7822;DHT22;3956;50.558;9.678;2022-10-22T13:50:22;17.20;99.90
7822;DHT22;3956;50.558;9.678;2022-10-22T13:52:53;17.40;99.90
7822;DHT22;3956;50.558;9.678;2022-10-22T13:55:23;17.20;99.90
7822;DHT22;3956;50.558;9.678;2022-10-22T13:57:54;17.10;99.90
7822;DHT22;3956;50.558;9.678;2022-10-22T14:00:23;17.00;99.90
7822;DHT22;3956;50.558;9.678;2022-10-22T14:02:53;17.10;99.90
7822;DHT22;3956;50.558;9.678;2022-10-22T14:05:24;17.10;99.90
7822;DHT22;3956;50.558;9.678;2022-10-22T14:07:52;17.30;99.90
7822;DHT22;3956;50.558;9.678;2022-10-22T14:10:23;17.30;99.90
7822;DHT22;3956;50.558;9.678;2022-10-22T14:12:52;17.20;99.90
7822;DHT22;3956;50.558;9.678;2022-10-22T14:15:22;17.20;99.90
7822;DHT22;3956;50.558;9.678;2022-10-22T14:17:56;17.30;99.90
7822;DHT22;3956;50.558;9.678;2022-10-22T14:20:27;17.40;99.90
7822;DHT22;3956;50.558;9.678;2022-10-22T14:23:00;17.10;99.90
7822;DHT22;3956;50.558;9.678;2022-10-22T14:25:29;17.10;99.90
7822;DHT22;3956;50.558;9.678;2022-10-22T14:27:58;16.90;99.90
7822;DHT22;3956;50.558;9.678;2022-10-22T14:30:28;16.80;99.90
7822;DHT22;3956;50.558;9.678;2022-10-22T14:32:57;16.70;99.90
7822;DHT22;3956;50.558;9.678;2022-10-22T14:35:25;16.60;99.90
7822;DHT22;3956;50.558;9.678;2022-10-22T14:37:54;16.60;99.90
7822;DHT22;3956;50.558;9.678;2022-10-22T14:40:24;16.60;99.90
7822;DHT22;3956;50.558;9.678;2022-10-22T14:42:52;16.50;99.90
7822;DHT22;3956;50.558;9.678;2022-10-22T14:45:22;16.50;99.90
7822;DHT22;3956;50.558;9.678;2022-10-22T14:47:52;16.50;99.90
7822;DHT22;3956;50.558;9.678;2022-10-22T14:50:22;16.30;99.90
7822;DHT22;3956;50.558;9.678;2022-10-22T14:52:51;16.20;99.90
7822;DHT22;3956;50.558;9.678;2022-10-22T14:55:19;16.20;99.90
7822;DHT22;3956;50.558;9.678;2022-10-22T14:57:48;16.10;99.90
7822;DHT22;3956;50.558;9.678;2022-10-22T15:00:17;16.10;99.90
7822;DHT22;3956;50.558;9.678;2022-10-22T15:02:46;16.00;99.90
7822;DHT22;3956;50.558;9.678;2022-10-22T15:05:17;16.10;99.90
7822;DHT22;3956;50.558;9.678;2022-10-22T15:07:45;15.80;1.00
7822;DHT22;3956;50.558;9.678;2022-10-22T15:10:13;15.50;99.90
7822;DHT22;3956;50.558;9.678;2022-10-22T15:12:42;15.50;99.90
7822;DHT22;3956;50.558;9.678;2022-10-22T15:15:10;15.50;99.90
7822;DHT22;3956;50.558;9.678;2022-10-22T15:17:39;15.60;99.90
7822;DHT22;3956;50.558;9.678;2022-10-22T15:20:08;15.60;99.90
7822;DHT22;3956;50.558;9.678;2022-10-22T15:22:38;15.60;99.90
7822;DHT22;3956;50.558;9.678;2022-10-22T15:25:08;15.50;99.90
7822;DHT22;3956;50.558;9.678;2022-10-22T15:27:36;15.50;99.90
7822;DHT22;3956;50.558;9.678;2022-10-22T15:30:06;15.50;99.90
7822;DHT22;3956;50.558;9.678;2022-10-22T15:32:34;15.40;99.90
7822;DHT22;3956;50.558;9.678;2022-10-22T15:35:03;15.40;99.90
7822;DHT22;3956;50.558;9.678;2022-10-22T15:37:32;15.30;99.90
7822;DHT22;3956;50.558;9.678;2022-10-22T15:40:02;15.30;99.90
7822;DHT22;3956;50.558;9.678;2022-10-22T15:42:30;15.30;99.90
7822;DHT22;3956;50.558;9.678;2022-10-22T15:44:59;15.30;99.90
7822;DHT22;3956;50.558;9.678;2022-10-22T15:47:28;15.20;99.90
7822;DHT22;3956;50.558;9.678;2022-10-22T15:49:57;15.10;99.90
7822;DHT22;3956;50.558;9.678;2022-10-22T15:52:25;15.10;99.90
7822;DHT22;3956;50.558;9.678;2022-10-22T15:54:54;15.00;99.90
7822;DHT22;3956;50.558;9.678;2022-10-22T15:57:23;15.00;99.90
7822;DHT22;3956;50.558;9.678;2022-10-22T15:59:52;15.00;99.90
7822;DHT22;3956;50.558;9.678;2022-10-22T16:02:20;14.90;99.90
7822;DHT22;3956;50.558;9.678;2022-10-22T16:04:48;14.90;99.90
7822;DHT22;3956;50.558;9.678;2022-10-22T16:07:16;14.90;99.90
7822;DHT22;3956;50.558;9.678;2022-10-22T16:09:53;14.90;99.90
7822;DHT22;3956;50.558;9.678;2022-10-22T16:12:23;14.90;99.90
7822;DHT22;3956;50.558;9.678;2022-10-22T16:14:52;14.90;99.90
7822;DHT22;3956;50.558;9.678;2022-10-22T16:17:20;14.90;99.90
7822;DHT22;3956;50.558;9.678;2022-10-22T16:19:49;14.90;99.90
7822;DHT22;3956;50.558;9.678;2022-10-22T16:22:17;14.90;99.90
7822;DHT22;3956;50.558;9.678;2022-10-22T16:24:45;14.90;99.90
7822;DHT22;3956;50.558;9.678;2022-10-22T16:27:13;14.90;99.90
7822;DHT22;3956;50.558;9.678;2022-10-22T16:29:43;15.00;99.90
7822;DHT22;3956;50.558;9.678;2022-10-22T16:32:11;14.90;99.90
7822;DHT22;3956;50.558;9.678;2022-10-22T16:34:42;14.90;99.90
7822;DHT22;3956;50.558;9.678;2022-10-22T16:37:10;15.00;99.90
7822;DHT22;3956;50.558;9.678;2022-10-22T16:39:38;15.00;99.90